sensor_id;sensor_type;location;lat;lon;timestamp;P1;durP1;ratioP1;P2;durP2;ratioP2
8100;SDS011;4093;53.470;9.832;2023-11-21T00:00:56;18.57;;;11.30;;
8100;SDS011;4093;53.470;9.832;2023-11-21T00:03:24;15.37;;;10.27;;
8100;SDS011;4093;53.470;9.832;2023-11-21T00:05:54;18.00;;;9.80;;
8100;SDS011;4093;53.470;9.832;2023-11-21T00:08:22;20.10;;;11.57;;
8100;SDS011;4093;53.470;9.832;2023-11-21T00:10:50;18.13;;;11.07;;
8100;SDS011;4093;53.470;9.832;2023-11-21T00:13:18;21.63;;;11.20;;
8100;SDS011;4093;53.470;9.832;2023-11-21T00:15:46;21.80;;;11.27;;
8100;SDS011;4093;53.470;9.832;2023-11-21T00:18:15;16.83;;;10.60;;
8100;SDS011;4093;53.470;9.832;2023-11-21T00:20:43;21.00;;;11.47;;
8100;SDS011;4093;53.470;9.832;2023-11-21T00:23:10;19.97;;;11.80;;
8100;SDS011;4093;53.470;9.832;2023-11-21T00:25:38;20.90;;;12.37;;
8100;SDS011;4093;53.470;9.832;2023-11-21T00:28:06;17.10;;;10.33;;
8100;SDS011;4093;53.470;9.832;2023-11-21T00:30:34;16.30;;;11.30;;
8100;SDS011;4093;53.470;9.832;2023-11-21T00:33:02;18.90;;;11.73;;
8100;SDS011;4093;53.470;9.832;2023-11-21T00:35:32;17.83;;;12.33;;
8100;SDS011;4093;53.470;9.832;2023-11-21T00:37:59;20.97;;;12.10;;
8100;SDS011;4093;53.470;9.832;2023-11-21T00:40:27;16.30;;;11.50;;
8100;SDS011;4093;53.470;9.832;2023-11-21T00:42:55;20.07;;;10.40;;
8100;SDS011;4093;53.470;9.832;2023-11-21T00:45:22;17.53;;;12.10;;
8100;SDS011;4093;53.470;9.832;2023-11-21T00:47:50;20.80;;;12.07;;
8100;SDS011;4093;53.470;9.832;2023-11-21T00:50:18;23.23;;;13.90;;
8100;SDS011;4093;53.470;9.832;2023-11-21T00:52:47;24.60;;;14.30;;
8100;SDS011;4093;53.470;9.832;2023-11-21T00:55:16;21.27;;;14.10;;
8100;SDS011;4093;53.470;9.832;2023-11-21T00:57:44;24.43;;;14.67;;
8100;SDS011;4093;53.470;9.832;2023-11-21T01:00:12;21.50;;;14.57;;
8100;SDS011;4093;53.470;9.832;2023-11-21T01:02:43;20.83;;;13.30;;
8100;SDS011;4093;53.470;9.832;2023-11-21T01:05:11;16.17;;;11.23;;
8100;SDS011;4093;53.470;9.832;2023-11-21T01:07:38;13.97;;;11.03;;
8100;SDS011;4093;53.470;9.832;2023-11-21T01:10:08;20.00;;;12.60;;
8100;SDS011;4093;53.470;9.832;2023-11-21T01:12:36;17.23;;;11.60;;
8100;SDS011;4093;53.470;9.832;2023-11-21T01:15:05;15.80;;;11.47;;
8100;SDS011;4093;53.470;9.832;2023-11-21T01:17:34;18.97;;;11.83;;
8100;SDS011;4093;53.470;9.832;2023-11-21T01:20:03;17.37;;;11.97;;
8100;SDS011;4093;53.470;9.832;2023-11-21T01:22:37;16.23;;;10.30;;
8100;SDS011;4093;53.470;9.832;2023-11-21T01:25:05;13.60;;;9.67;;
8100;SDS011;4093;53.470;9.832;2023-11-21T01:27:35;13.10;;;9.83;;
8100;SDS011;4093;53.470;9.832;2023-11-21T01:30:03;14.60;;;9.80;;
8100;SDS011;4093;53.470;9.832;2023-11-21T01:32:33;11.57;;;7.70;;
8100;SDS011;4093;53.470;9.832;2023-11-21T01:35:01;12.07;;;9.93;;
8100;SDS011;4093;53.470;9.832;2023-11-21T01:37:29;16.10;;;10.27;;
8100;SDS011;4093;53.470;9.832;2023-11-21T01:39:56;14.60;;;9.53;;
8100;SDS011;4093;53.470;9.832;2023-11-21T01:42:26;14.70;;;10.83;;
8100;SDS011;4093;53.470;9.832;2023-11-21T01:44:55;18.00;;;11.30;;
8100;SDS011;4093;53.470;9.832;2023-11-21T01:47:23;18.43;;;11.87;;
8100;SDS011;4093;53.470;9.832;2023-11-21T01:49:51;23.07;;;13.80;;
8100;SDS011;4093;53.470;9.832;2023-11-21T01:52:19;16.47;;;11.73;;
8100;SDS011;4093;53.470;9.832;2023-11-21T01:54:47;18.40;;;13.40;;
8100;SDS011;4093;53.470;9.832;2023-11-21T01:57:15;21.23;;;14.20;;
8100;SDS011;4093;53.470;9.832;2023-11-21T01:59:44;23.23;;;13.83;;
8100;SDS011;4093;53.470;9.832;2023-11-21T02:02:16;15.47;;;10.00;;
8100;SDS011;4093;53.470;9.832;2023-11-21T02:04:43;15.07;;;10.83;;
8100;SDS011;4093;53.470;9.832;2023-11-21T02:07:11;18.63;;;12.57;;
8100;SDS011;4093;53.470;9.832;2023-11-21T02:09:39;20.17;;;12.63;;
8100;SDS011;4093;53.470;9.832;2023-11-21T02:12:08;18.37;;;12.43;;
8100;SDS011;4093;53.470;9.832;2023-11-21T02:14:37;20.63;;;13.50;;
8100;SDS011;4093;53.470;9.832;2023-11-21T02:17:06;20.93;;;13.73;;
8100;SDS011;4093;53.470;9.832;2023-11-21T02:19:34;19.67;;;12.43;;
8100;SDS011;4093;53.470;9.832;2023-11-21T02:22:01;18.63;;;11.53;;
8100;SDS011;4093;53.470;9.832;2023-11-21T02:24:34;15.50;;;10.60;;
8100;SDS011;4093;53.470;9.832;2023-11-21T02:27:04;11.33;;;8.10;;
8100;SDS011;4093;53.470;9.832;2023-11-21T02:29:32;13.20;;;8.70;;
8100;SDS011;4093;53.470;9.832;2023-11-21T02:32:00;11.57;;;8.40;;
8100;SDS011;4093;53.470;9.832;2023-11-21T02:34:28;13.20;;;9.50;;
8100;SDS011;4093;53.470;9.832;2023-11-21T02:36:55;13.17;;;8.50;;
8100;SDS011;4093;53.470;9.832;2023-11-21T02:39:23;11.17;;;7.80;;
8100;SDS011;4093;53.470;9.832;2023-11-21T02:41:53;11.07;;;7.97;;
8100;SDS011;4093;53.470;9.832;2023-11-21T02:44:21;10.33;;;7.87;;
8100;SDS011;4093;53.470;9.832;2023-11-21T02:46:48;10.20;;;7.87;;
8100;SDS011;4093;53.470;9.832;2023-11-21T02:49:16;8.87;;;7.20;;
8100;SDS011;4093;53.470;9.832;2023-11-21T02:51:44;11.17;;;7.20;;
8100;SDS011;4093;53.470;9.832;2023-11-21T02:54:11;9.40;;;6.70;;
8100;SDS011;4093;53.470;9.832;2023-11-21T02:56:39;8.53;;;7.40;;
8100;SDS011;4093;53.470;9.832;2023-11-21T02:59:08;9.50;;;7.10;;
8100;SDS011;4093;53.470;9.832;2023-11-21T03:01:36;8.40;;;5.97;;
8100;SDS011;4093;53.470;9.832;2023-11-21T03:04:04;9.80;;;6.37;;
8100;SDS011;4093;53.470;9.832;2023-11-21T03:06:33;7.80;;;6.40;;
8100;SDS011;4093;53.470;9.832;2023-11-21T03:09:01;9.70;;;7.13;;
8100;SDS011;4093;53.470;9.832;2023-11-21T03:11:28;7.27;;;6.20;;
8100;SDS011;4093;53.470;9.832;2023-11-21T03:13:56;7.87;;;5.90;;
8100;SDS011;4093;53.470;9.832;2023-11-21T03:16:25;8.47;;;6.77;;
8100;SDS011;4093;53.470;9.832;2023-11-21T03:18:53;7.87;;;6.40;;
8100;SDS011;4093;53.470;9.832;2023-11-21T03:21:21;9.67;;;6.23;;
8100;SDS011;4093;53.470;9.832;2023-11-21T03:23:48;8.30;;;6.63;;
8100;SDS011;4093;53.470;9.832;2023-11-21T03:26:16;8.43;;;6.43;;
8100;SDS011;4093;53.470;9.832;2023-11-21T03:28:44;7.67;;;6.40;;
8100;SDS011;4093;53.470;9.832;2023-11-21T03:31:12;9.03;;;6.10;;
8100;SDS011;4093;53.470;9.832;2023-11-21T03:33:41;10.23;;;6.73;;
8100;SDS011;4093;53.470;9.832;2023-11-21T03:36:09;8.33;;;6.80;;
8100;SDS011;4093;53.470;9.832;2023-11-21T03:38:37;9.13;;;7.13;;
8100;SDS011;4093;53.470;9.832;2023-11-21T03:41:05;10.03;;;7.07;;
8100;SDS011;4093;53.470;9.832;2023-11-21T03:43:34;9.57;;;7.47;;
8100;SDS011;4093;53.470;9.832;2023-11-21T03:46:01;11.00;;;7.17;;
8100;SDS011;4093;53.470;9.832;2023-11-21T03:48:29;10.07;;;7.20;;
8100;SDS011;4093;53.470;9.832;2023-11-21T03:50:59;7.93;;;6.07;;
8100;SDS011;4093;53.470;9.832;2023-11-21T03:53:27;11.13;;;8.20;;
8100;SDS011;4093;53.470;9.832;2023-11-21T03:55:55;9.87;;;7.67;;
8100;SDS011;4093;53.470;9.832;2023-11-21T03:58:23;9.37;;;7.63;;
8100;SDS011;4093;53.470;9.832;2023-11-21T04:00:50;10.93;;;7.30;;
8100;SDS011;4093;53.470;9.832;2023-11-21T04:03:18;11.80;;;7.87;;
8100;SDS011;4093;53.470;9.832;2023-11-21T04:05:46;11.60;;;7.20;;
8100;SDS011;4093;53.470;9.832;2023-11-21T04:08:16;11.13;;;7.50;;
8100;SDS011;4093;53.470;9.832;2023-11-21T04:10:44;10.47;;;8.10;;
8100;SDS011;4093;53.470;9.832;2023-11-21T04:13:12;9.57;;;7.60;;
8100;SDS011;4093;53.470;9.832;2023-11-21T04:15:40;12.77;;;7.80;;
8100;SDS011;4093;53.470;9.832;2023-11-21T04:18:07;10.13;;;7.30;;
8100;SDS011;4093;53.470;9.832;2023-11-21T04:20:35;9.27;;;7.70;;
8100;SDS011;4093;53.470;9.832;2023-11-21T04:23:03;15.73;;;8.00;;
8100;SDS011;4093;53.470;9.832;2023-11-21T04:25:32;10.87;;;8.43;;
8100;SDS011;4093;53.470;9.832;2023-11-21T04:28:00;11.13;;;8.00;;
8100;SDS011;4093;53.470;9.832;2023-11-21T04:30:27;11.23;;;7.53;;
8100;SDS011;4093;53.470;9.832;2023-11-21T04:32:55;8.87;;;6.90;;
8100;SDS011;4093;53.470;9.832;2023-11-21T04:35:23;11.10;;;7.90;;
8100;SDS011;4093;53.470;9.832;2023-11-21T04:37:51;13.53;;;8.90;;
8100;SDS011;4093;53.470;9.832;2023-11-21T04:40:18;13.30;;;8.33;;
8100;SDS011;4093;53.470;9.832;2023-11-21T04:42:48;11.67;;;9.53;;
8100;SDS011;4093;53.470;9.832;2023-11-21T04:45:16;12.37;;;8.40;;
8100;SDS011;4093;53.470;9.832;2023-11-21T04:47:44;14.83;;;8.97;;
8100;SDS011;4093;53.470;9.832;2023-11-21T04:50:11;11.37;;;8.60;;
8100;SDS011;4093;53.470;9.832;2023-11-21T04:52:39;12.57;;;8.97;;
8100;SDS011;4093;53.470;9.832;2023-11-21T04:55:07;11.23;;;8.37;;
8100;SDS011;4093;53.470;9.832;2023-11-21T04:57:37;11.27;;;8.63;;
8100;SDS011;4093;53.470;9.832;2023-11-21T05:00:07;11.47;;;9.37;;
8100;SDS011;4093;53.470;9.832;2023-11-21T05:02:35;13.23;;;8.77;;
8100;SDS011;4093;53.470;9.832;2023-11-21T05:05:05;10.93;;;9.13;;
8100;SDS011;4093;53.470;9.832;2023-11-21T05:07:34;12.77;;;9.17;;
8100;SDS011;4093;53.470;9.832;2023-11-21T05:10:03;10.73;;;8.50;;
8100;SDS011;4093;53.470;9.832;2023-11-21T05:12:34;11.47;;;9.23;;
8100;SDS011;4093;53.470;9.832;2023-11-21T05:15:04;10.93;;;8.70;;
8100;SDS011;4093;53.470;9.832;2023-11-21T05:17:36;13.43;;;9.20;;
8100;SDS011;4093;53.470;9.832;2023-11-21T05:20:06;11.10;;;8.47;;
8100;SDS011;4093;53.470;9.832;2023-11-21T05:22:36;12.73;;;8.70;;
8100;SDS011;4093;53.470;9.832;2023-11-21T05:25:04;11.67;;;8.63;;
8100;SDS011;4093;53.470;9.832;2023-11-21T05:27:34;11.43;;;8.53;;
8100;SDS011;4093;53.470;9.832;2023-11-21T05:30:02;11.53;;;8.33;;
8100;SDS011;4093;53.470;9.832;2023-11-21T05:32:33;11.63;;;9.33;;
8100;SDS011;4093;53.470;9.832;2023-11-21T05:35:01;10.73;;;8.73;;
8100;SDS011;4093;53.470;9.832;2023-11-21T05:37:29;10.90;;;8.27;;
8100;SDS011;4093;53.470;9.832;2023-11-21T05:39:57;12.27;;;8.93;;
8100;SDS011;4093;53.470;9.832;2023-11-21T05:42:25;9.90;;;8.27;;
8100;SDS011;4093;53.470;9.832;2023-11-21T05:44:53;13.53;;;8.07;;
8100;SDS011;4093;53.470;9.832;2023-11-21T05:47:21;11.77;;;8.73;;
8100;SDS011;4093;53.470;9.832;2023-11-21T05:49:50;11.17;;;7.97;;
8100;SDS011;4093;53.470;9.832;2023-11-21T05:52:18;9.70;;;7.97;;
8100;SDS011;4093;53.470;9.832;2023-11-21T05:54:47;9.77;;;8.03;;
8100;SDS011;4093;53.470;9.832;2023-11-21T05:57:15;12.57;;;8.67;;
8100;SDS011;4093;53.470;9.832;2023-11-21T05:59:42;11.33;;;8.40;;
8100;SDS011;4093;53.470;9.832;2023-11-21T06:02:12;10.70;;;8.60;;
8100;SDS011;4093;53.470;9.832;2023-11-21T06:04:40;13.63;;;7.53;;
8100;SDS011;4093;53.470;9.832;2023-11-21T06:07:09;12.93;;;8.10;;
8100;SDS011;4093;53.470;9.832;2023-11-21T06:09:37;11.80;;;8.33;;
8100;SDS011;4093;53.470;9.832;2023-11-21T06:12:05;13.87;;;8.60;;
8100;SDS011;4093;53.470;9.832;2023-11-21T06:14:33;11.73;;;9.37;;
8100;SDS011;4093;53.470;9.832;2023-11-21T06:17:01;11.57;;;8.53;;
8100;SDS011;4093;53.470;9.832;2023-11-21T06:19:30;12.03;;;8.47;;
8100;SDS011;4093;53.470;9.832;2023-11-21T06:21:57;10.00;;;8.40;;
8100;SDS011;4093;53.470;9.832;2023-11-21T06:24:27;13.70;;;9.00;;
8100;SDS011;4093;53.470;9.832;2023-11-21T06:26:54;11.17;;;8.90;;
8100;SDS011;4093;53.470;9.832;2023-11-21T06:29:22;10.97;;;9.00;;
8100;SDS011;4093;53.470;9.832;2023-11-21T06:31:50;11.77;;;9.33;;
8100;SDS011;4093;53.470;9.832;2023-11-21T06:34:18;13.07;;;9.40;;
8100;SDS011;4093;53.470;9.832;2023-11-21T06:36:46;12.50;;;9.73;;
8100;SDS011;4093;53.470;9.832;2023-11-21T06:39:14;12.23;;;9.43;;
8100;SDS011;4093;53.470;9.832;2023-11-21T06:41:44;11.93;;;9.50;;
8100;SDS011;4093;53.470;9.832;2023-11-21T06:44:12;11.17;;;9.27;;
8100;SDS011;4093;53.470;9.832;2023-11-21T06:46:40;10.40;;;8.87;;
8100;SDS011;4093;53.470;9.832;2023-11-21T06:49:09;15.83;;;10.47;;
8100;SDS011;4093;53.470;9.832;2023-11-21T06:51:37;12.70;;;9.73;;
8100;SDS011;4093;53.470;9.832;2023-11-21T06:54:05;11.03;;;9.17;;
8100;SDS011;4093;53.470;9.832;2023-11-21T06:56:33;13.57;;;9.63;;
8100;SDS011;4093;53.470;9.832;2023-11-21T06:59:03;12.30;;;9.30;;
8100;SDS011;4093;53.470;9.832;2023-11-21T07:01:32;11.83;;;10.00;;
8100;SDS011;4093;53.470;9.832;2023-11-21T07:04:05;15.10;;;9.57;;
8100;SDS011;4093;53.470;9.832;2023-11-21T07:06:33;12.43;;;9.20;;
8100;SDS011;4093;53.470;9.832;2023-11-21T07:09:01;13.53;;;8.97;;
8100;SDS011;4093;53.470;9.832;2023-11-21T07:11:29;13.17;;;9.33;;
8100;SDS011;4093;53.470;9.832;2023-11-21T07:13:57;9.83;;;8.43;;
8100;SDS011;4093;53.470;9.832;2023-11-21T07:16:26;12.27;;;9.87;;
8100;SDS011;4093;53.470;9.832;2023-11-21T07:18:54;13.30;;;10.23;;
8100;SDS011;4093;53.470;9.832;2023-11-21T07:21:22;13.00;;;9.83;;
8100;SDS011;4093;53.470;9.832;2023-11-21T07:23:50;11.80;;;9.13;;
8100;SDS011;4093;53.470;9.832;2023-11-21T07:26:18;11.83;;;9.63;;
8100;SDS011;4093;53.470;9.832;2023-11-21T07:28:46;12.13;;;9.03;;
8100;SDS011;4093;53.470;9.832;2023-11-21T07:31:13;11.87;;;9.67;;
8100;SDS011;4093;53.470;9.832;2023-11-21T07:33:43;13.77;;;10.03;;
8100;SDS011;4093;53.470;9.832;2023-11-21T07:36:13;13.67;;;10.30;;
8100;SDS011;4093;53.470;9.832;2023-11-21T07:38:41;13.20;;;10.27;;
8100;SDS011;4093;53.470;9.832;2023-11-21T07:41:09;12.90;;;9.90;;
8100;SDS011;4093;53.470;9.832;2023-11-21T07:43:56;12.57;;;10.20;;
8100;SDS011;4093;53.470;9.832;2023-11-21T07:46:25;13.43;;;9.67;;
8100;SDS011;4093;53.470;9.832;2023-11-21T07:48:55;13.37;;;10.00;;
8100;SDS011;4093;53.470;9.832;2023-11-21T07:51:23;13.27;;;10.27;;
8100;SDS011;4093;53.470;9.832;2023-11-21T07:53:50;11.20;;;9.50;;
8100;SDS011;4093;53.470;9.832;2023-11-21T07:56:18;12.17;;;9.67;;
8100;SDS011;4093;53.470;9.832;2023-11-21T07:58:46;12.30;;;9.50;;
8100;SDS011;4093;53.470;9.832;2023-11-21T08:01:15;13.13;;;9.73;;
8100;SDS011;4093;53.470;9.832;2023-11-21T08:03:43;10.80;;;9.23;;
8100;SDS011;4093;53.470;9.832;2023-11-21T08:06:12;17.23;;;11.93;;
8100;SDS011;4093;53.470;9.832;2023-11-21T08:08:40;13.07;;;10.00;;
8100;SDS011;4093;53.470;9.832;2023-11-21T08:11:09;11.60;;;8.73;;
8100;SDS011;4093;53.470;9.832;2023-11-21T08:13:38;12.83;;;9.73;;
8100;SDS011;4093;53.470;9.832;2023-11-21T08:16:07;12.73;;;9.50;;
8100;SDS011;4093;53.470;9.832;2023-11-21T08:18:35;13.90;;;9.47;;
8100;SDS011;4093;53.470;9.832;2023-11-21T08:21:03;13.67;;;8.80;;
8100;SDS011;4093;53.470;9.832;2023-11-21T08:23:32;11.90;;;9.17;;
8100;SDS011;4093;53.470;9.832;2023-11-21T08:26:00;14.30;;;9.83;;
8100;SDS011;4093;53.470;9.832;2023-11-21T08:28:31;13.00;;;9.27;;
8100;SDS011;4093;53.470;9.832;2023-11-21T08:31:00;11.90;;;9.30;;
8100;SDS011;4093;53.470;9.832;2023-11-21T08:33:28;10.70;;;8.27;;
8100;SDS011;4093;53.470;9.832;2023-11-21T08:35:55;10.67;;;8.37;;
8100;SDS011;4093;53.470;9.832;2023-11-21T08:38:23;13.57;;;8.90;;
8100;SDS011;4093;53.470;9.832;2023-11-21T08:40:52;10.50;;;7.80;;
8100;SDS011;4093;53.470;9.832;2023-11-21T08:43:20;9.30;;;7.03;;
8100;SDS011;4093;53.470;9.832;2023-11-21T08:45:48;8.73;;;7.80;;
8100;SDS011;4093;53.470;9.832;2023-11-21T08:48:16;9.97;;;7.77;;
8100;SDS011;4093;53.470;9.832;2023-11-21T08:50:43;10.60;;;8.20;;
8100;SDS011;4093;53.470;9.832;2023-11-21T08:53:11;10.70;;;7.53;;
8100;SDS011;4093;53.470;9.832;2023-11-21T08:55:39;10.20;;;7.30;;
8100;SDS011;4093;53.470;9.832;2023-11-21T08:58:08;8.23;;;7.00;;
8100;SDS011;4093;53.470;9.832;2023-11-21T09:00:36;7.80;;;6.90;;
8100;SDS011;4093;53.470;9.832;2023-11-21T09:03:04;9.50;;;6.90;;
8100;SDS011;4093;53.470;9.832;2023-11-21T09:05:37;9.20;;;6.80;;
8100;SDS011;4093;53.470;9.832;2023-11-21T09:08:06;8.20;;;7.00;;
8100;SDS011;4093;53.470;9.832;2023-11-21T09:10:34;9.10;;;6.80;;
8100;SDS011;4093;53.470;9.832;2023-11-21T09:13:03;7.27;;;6.40;;
8100;SDS011;4093;53.470;9.832;2023-11-21T09:15:32;9.37;;;5.90;;
8100;SDS011;4093;53.470;9.832;2023-11-21T09:18:00;8.57;;;6.60;;
8100;SDS011;4093;53.470;9.832;2023-11-21T09:20:28;17.07;;;10.07;;
8100;SDS011;4093;53.470;9.832;2023-11-21T09:22:56;14.17;;;9.77;;
8100;SDS011;4093;53.470;9.832;2023-11-21T09:25:23;11.17;;;8.27;;
8100;SDS011;4093;53.470;9.832;2023-11-21T09:27:51;7.80;;;6.20;;
8100;SDS011;4093;53.470;9.832;2023-11-21T09:30:19;9.97;;;7.87;;
8100;SDS011;4093;53.470;9.832;2023-11-21T09:32:48;8.93;;;6.77;;
8100;SDS011;4093;53.470;9.832;2023-11-21T09:35:16;8.03;;;6.00;;
8100;SDS011;4093;53.470;9.832;2023-11-21T09:37:44;9.13;;;6.07;;
8100;SDS011;4093;53.470;9.832;2023-11-21T09:40:15;6.97;;;5.80;;
8100;SDS011;4093;53.470;9.832;2023-11-21T09:42:49;8.70;;;6.07;;
8100;SDS011;4093;53.470;9.832;2023-11-21T09:45:24;7.00;;;5.20;;
8100;SDS011;4093;53.470;9.832;2023-11-21T09:47:54;6.37;;;5.23;;
8100;SDS011;4093;53.470;9.832;2023-11-21T09:52:55;5.30;;;4.40;;
8100;SDS011;4093;53.470;9.832;2023-11-21T09:55:27;7.77;;;5.93;;
8100;SDS011;4093;53.470;9.832;2023-11-21T09:57:56;6.33;;;4.60;;
8100;SDS011;4093;53.470;9.832;2023-11-21T10:00:24;5.13;;;4.63;;
8100;SDS011;4093;53.470;9.832;2023-11-21T10:02:51;5.40;;;4.90;;
8100;SDS011;4093;53.470;9.832;2023-11-21T10:05:20;6.10;;;4.60;;
8100;SDS011;4093;53.470;9.832;2023-11-21T10:07:51;5.53;;;4.27;;
8100;SDS011;4093;53.470;9.832;2023-11-21T10:10:22;5.77;;;4.50;;
8100;SDS011;4093;53.470;9.832;2023-11-21T10:12:54;5.17;;;4.50;;
8100;SDS011;4093;53.470;9.832;2023-11-21T10:15:23;5.37;;;4.67;;
8100;SDS011;4093;53.470;9.832;2023-11-21T10:17:52;5.80;;;4.53;;
8100;SDS011;4093;53.470;9.832;2023-11-21T10:20:21;5.20;;;4.67;;
8100;SDS011;4093;53.470;9.832;2023-11-21T10:22:50;5.20;;;4.70;;
8100;SDS011;4093;53.470;9.832;2023-11-21T10:25:18;4.53;;;3.97;;
8100;SDS011;4093;53.470;9.832;2023-11-21T10:27:48;5.67;;;4.30;;
8100;SDS011;4093;53.470;9.832;2023-11-21T10:30:18;4.40;;;3.97;;
8100;SDS011;4093;53.470;9.832;2023-11-21T10:32:46;4.90;;;4.40;;
8100;SDS011;4093;53.470;9.832;2023-11-21T10:35:14;7.23;;;4.97;;
8100;SDS011;4093;53.470;9.832;2023-11-21T10:37:42;8.70;;;5.23;;
8100;SDS011;4093;53.470;9.832;2023-11-21T10:40:10;6.07;;;4.30;;
8100;SDS011;4093;53.470;9.832;2023-11-21T10:42:39;6.37;;;4.27;;
8100;SDS011;4093;53.470;9.832;2023-11-21T10:45:09;5.20;;;4.60;;
8100;SDS011;4093;53.470;9.832;2023-11-21T10:47:40;4.47;;;4.07;;
8100;SDS011;4093;53.470;9.832;2023-11-21T10:50:09;9.97;;;4.70;;
8100;SDS011;4093;53.470;9.832;2023-11-21T10:52:39;5.20;;;4.53;;
8100;SDS011;4093;53.470;9.832;2023-11-21T10:55:18;5.33;;;4.50;;
8100;SDS011;4093;53.470;9.832;2023-11-21T10:57:48;5.07;;;4.40;;
8100;SDS011;4093;53.470;9.832;2023-11-21T11:00:19;5.70;;;4.97;;
8100;SDS011;4093;53.470;9.832;2023-11-21T11:02:48;5.00;;;4.50;;
8100;SDS011;4093;53.470;9.832;2023-11-21T11:05:20;7.37;;;4.50;;
8100;SDS011;4093;53.470;9.832;2023-11-21T11:07:50;6.67;;;4.63;;
8100;SDS011;4093;53.470;9.832;2023-11-21T11:10:20;4.97;;;4.47;;
8100;SDS011;4093;53.470;9.832;2023-11-21T11:12:49;6.20;;;4.50;;
8100;SDS011;4093;53.470;9.832;2023-11-21T11:15:20;4.77;;;3.90;;
8100;SDS011;4093;53.470;9.832;2023-11-21T11:17:48;5.00;;;4.33;;
8100;SDS011;4093;53.470;9.832;2023-11-21T11:20:17;5.60;;;4.40;;
8100;SDS011;4093;53.470;9.832;2023-11-21T11:22:48;6.40;;;5.00;;
8100;SDS011;4093;53.470;9.832;2023-11-21T11:28:20;5.77;;;4.83;;
8100;SDS011;4093;53.470;9.832;2023-11-21T11:30:56;4.83;;;4.37;;
8100;SDS011;4093;53.470;9.832;2023-11-21T11:33:36;5.27;;;4.07;;
8100;SDS011;4093;53.470;9.832;2023-11-21T11:36:10;4.57;;;3.93;;
8100;SDS011;4093;53.470;9.832;2023-11-21T11:38:45;5.70;;;4.20;;
8100;SDS011;4093;53.470;9.832;2023-11-21T11:41:23;5.37;;;4.03;;
8100;SDS011;4093;53.470;9.832;2023-11-21T11:43:53;4.27;;;3.87;;
8100;SDS011;4093;53.470;9.832;2023-11-21T11:46:23;5.00;;;4.10;;
8100;SDS011;4093;53.470;9.832;2023-11-21T11:49:09;5.70;;;4.30;;
8100;SDS011;4093;53.470;9.832;2023-11-21T11:51:37;7.37;;;5.17;;
8100;SDS011;4093;53.470;9.832;2023-11-21T11:54:05;8.53;;;6.00;;
8100;SDS011;4093;53.470;9.832;2023-11-21T11:56:34;8.17;;;4.90;;
8100;SDS011;4093;53.470;9.832;2023-11-21T11:59:04;5.50;;;4.90;;
8100;SDS011;4093;53.470;9.832;2023-11-21T12:01:32;4.10;;;3.70;;
8100;SDS011;4093;53.470;9.832;2023-11-21T12:06:59;7.50;;;5.70;;
8100;SDS011;4093;53.470;9.832;2023-11-21T12:09:30;6.60;;;5.00;;
8100;SDS011;4093;53.470;9.832;2023-11-21T12:11:59;6.00;;;4.90;;
8100;SDS011;4093;53.470;9.832;2023-11-21T12:14:27;4.53;;;4.13;;
8100;SDS011;4093;53.470;9.832;2023-11-21T12:16:56;6.77;;;4.70;;
8100;SDS011;4093;53.470;9.832;2023-11-21T12:19:25;5.20;;;4.67;;
8100;SDS011;4093;53.470;9.832;2023-11-21T12:21:53;4.90;;;4.40;;
8100;SDS011;4093;53.470;9.832;2023-11-21T12:24:22;5.17;;;3.97;;
8100;SDS011;4093;53.470;9.832;2023-11-21T12:26:50;4.20;;;3.80;;
8100;SDS011;4093;53.470;9.832;2023-11-21T12:29:17;5.07;;;4.17;;
8100;SDS011;4093;53.470;9.832;2023-11-21T12:31:45;5.10;;;3.80;;
8100;SDS011;4093;53.470;9.832;2023-11-21T12:34:17;6.40;;;4.33;;
8100;SDS011;4093;53.470;9.832;2023-11-21T12:36:45;5.27;;;3.97;;
8100;SDS011;4093;53.470;9.832;2023-11-21T12:39:13;7.77;;;4.73;;
8100;SDS011;4093;53.470;9.832;2023-11-21T12:41:41;6.13;;;4.63;;
8100;SDS011;4093;53.470;9.832;2023-11-21T12:44:09;6.03;;;4.17;;
8100;SDS011;4093;53.470;9.832;2023-11-21T12:46:42;5.07;;;4.50;;
8100;SDS011;4093;53.470;9.832;2023-11-21T12:49:11;4.10;;;3.70;;
8100;SDS011;4093;53.470;9.832;2023-11-21T12:51:45;5.57;;;3.67;;
8100;SDS011;4093;53.470;9.832;2023-11-21T12:54:13;4.17;;;3.77;;
8100;SDS011;4093;53.470;9.832;2023-11-21T12:56:44;4.50;;;4.00;;
8100;SDS011;4093;53.470;9.832;2023-11-21T12:59:15;4.97;;;4.00;;
8100;SDS011;4093;53.470;9.832;2023-11-21T13:01:44;4.27;;;3.87;;
8100;SDS011;4093;53.470;9.832;2023-11-21T13:04:12;5.57;;;4.20;;
8100;SDS011;4093;53.470;9.832;2023-11-21T13:06:40;5.43;;;3.90;;
8100;SDS011;4093;53.470;9.832;2023-11-21T13:09:10;4.53;;;4.03;;
8100;SDS011;4093;53.470;9.832;2023-11-21T13:11:39;4.13;;;3.73;;
8100;SDS011;4093;53.470;9.832;2023-11-21T13:14:07;4.57;;;4.00;;
8100;SDS011;4093;53.470;9.832;2023-11-21T13:16:37;9.23;;;4.00;;
8100;SDS011;4093;53.470;9.832;2023-11-21T13:19:05;5.17;;;4.13;;
8100;SDS011;4093;53.470;9.832;2023-11-21T13:21:35;5.27;;;4.37;;
8100;SDS011;4093;53.470;9.832;2023-11-21T13:24:03;5.53;;;4.50;;
8100;SDS011;4093;53.470;9.832;2023-11-21T13:26:32;7.33;;;3.87;;
8100;SDS011;4093;53.470;9.832;2023-11-21T13:29:00;5.03;;;4.13;;
8100;SDS011;4093;53.470;9.832;2023-11-21T13:31:31;5.63;;;4.00;;
8100;SDS011;4093;53.470;9.832;2023-11-21T13:34:02;4.83;;;3.70;;
8100;SDS011;4093;53.470;9.832;2023-11-21T13:36:34;6.53;;;4.10;;
8100;SDS011;4093;53.470;9.832;2023-11-21T13:39:02;7.47;;;3.97;;
8100;SDS011;4093;53.470;9.832;2023-11-21T13:41:36;5.40;;;3.93;;
8100;SDS011;4093;53.470;9.832;2023-11-21T13:44:05;5.67;;;3.70;;
8100;SDS011;4093;53.470;9.832;2023-11-21T13:46:42;4.80;;;3.77;;
8100;SDS011;4093;53.470;9.832;2023-11-21T13:49:12;4.07;;;3.67;;
8100;SDS011;4093;53.470;9.832;2023-11-21T13:51:42;4.27;;;3.70;;
8100;SDS011;4093;53.470;9.832;2023-11-21T13:54:11;5.97;;;3.80;;
8100;SDS011;4093;53.470;9.832;2023-11-21T13:56:41;4.43;;;4.03;;
8100;SDS011;4093;53.470;9.832;2023-11-21T13:59:11;4.30;;;3.90;;
8100;SDS011;4093;53.470;9.832;2023-11-21T14:01:47;4.63;;;3.70;;
8100;SDS011;4093;53.470;9.832;2023-11-21T14:04:23;4.13;;;3.63;;
8100;SDS011;4093;53.470;9.832;2023-11-21T14:07:19;4.37;;;3.83;;
8100;SDS011;4093;53.470;9.832;2023-11-21T14:09:58;4.43;;;4.00;;
8100;SDS011;4093;53.470;9.832;2023-11-21T14:12:28;4.53;;;3.77;;
8100;SDS011;4093;53.470;9.832;2023-11-21T14:15:00;4.77;;;4.10;;
8100;SDS011;4093;53.470;9.832;2023-11-21T14:17:31;4.43;;;4.03;;
8100;SDS011;4093;53.470;9.832;2023-11-21T14:20:00;4.83;;;3.77;;
8100;SDS011;4093;53.470;9.832;2023-11-21T14:22:31;5.30;;;3.97;;
8100;SDS011;4093;53.470;9.832;2023-11-21T14:24:59;6.50;;;4.40;;
8100;SDS011;4093;53.470;9.832;2023-11-21T14:27:31;5.07;;;3.83;;
8100;SDS011;4093;53.470;9.832;2023-11-21T14:30:02;4.90;;;4.00;;
8100;SDS011;4093;53.470;9.832;2023-11-21T14:32:31;4.07;;;3.47;;
8100;SDS011;4093;53.470;9.832;2023-11-21T14:34:59;4.47;;;3.67;;
8100;SDS011;4093;53.470;9.832;2023-11-21T14:37:27;4.53;;;3.50;;
8100;SDS011;4093;53.470;9.832;2023-11-21T14:39:55;4.17;;;3.47;;
8100;SDS011;4093;53.470;9.832;2023-11-21T14:42:23;4.47;;;3.63;;
8100;SDS011;4093;53.470;9.832;2023-11-21T14:44:57;5.70;;;4.20;;
8100;SDS011;4093;53.470;9.832;2023-11-21T14:47:29;5.07;;;4.20;;
8100;SDS011;4093;53.470;9.832;2023-11-21T14:49:58;4.03;;;3.60;;
8100;SDS011;4093;53.470;9.832;2023-11-21T14:52:32;5.00;;;4.23;;
8100;SDS011;4093;53.470;9.832;2023-11-21T14:55:01;3.97;;;3.60;;
8100;SDS011;4093;53.470;9.832;2023-11-21T14:57:53;5.80;;;3.83;;
8100;SDS011;4093;53.470;9.832;2023-11-21T15:00:22;8.83;;;4.37;;
8100;SDS011;4093;53.470;9.832;2023-11-21T15:03:08;4.63;;;3.77;;
8100;SDS011;4093;53.470;9.832;2023-11-21T15:05:36;5.70;;;3.87;;
8100;SDS011;4093;53.470;9.832;2023-11-21T15:08:06;5.27;;;4.07;;
8100;SDS011;4093;53.470;9.832;2023-11-21T15:10:46;5.27;;;3.97;;
8100;SDS011;4093;53.470;9.832;2023-11-21T15:13:19;4.20;;;3.67;;
8100;SDS011;4093;53.470;9.832;2023-11-21T15:15:49;3.57;;;3.20;;
8100;SDS011;4093;53.470;9.832;2023-11-21T15:18:18;6.47;;;3.40;;
8100;SDS011;4093;53.470;9.832;2023-11-21T15:20:46;4.73;;;3.87;;
8100;SDS011;4093;53.470;9.832;2023-11-21T15:23:14;5.10;;;3.80;;
8100;SDS011;4093;53.470;9.832;2023-11-21T15:25:44;5.75;;;3.63;;